createdAt,value
2023-01-11T00:01:21.795Z,82.42
2023-01-11T00:03:49.039Z,82.20
2023-01-11T00:06:16.041Z,82.01
2023-01-11T00:08:44.508Z,81.88
2023-01-11T00:11:15.013Z,82.30
2023-01-11T00:13:42.249Z,82.17
2023-01-11T00:16:09.818Z,82.22
2023-01-11T00:18:37.987Z,82.31
2023-01-11T00:21:06.156Z,82.28
2023-01-11T00:23:33.953Z,82.13
2023-01-11T00:26:04.334Z,82.30
2023-01-11T00:28:31.933Z,82.37
2023-01-11T00:30:58.976Z,82.61
2023-01-11T00:33:26.064Z,82.31
2023-01-11T00:35:53.513Z,82.52
2023-01-11T00:38:39.851Z,82.27
2023-01-11T00:41:35.824Z,82.35
2023-01-11T00:44:22.437Z,82.49
2023-01-11T00:47:08.379Z,82.28
2023-01-11T00:49:35.931Z,82.43
2023-01-11T00:52:05.670Z,82.44
2023-01-11T00:54:32.727Z,82.47
2023-01-11T00:57:01.166Z,82.28
2023-01-11T00:59:28.162Z,82.19
2023-01-11T01:01:55.269Z,82.22
2023-01-11T01:04:22.525Z,82.17
2023-01-11T01:06:49.589Z,82.06
2023-01-11T01:09:16.786Z,82.04
2023-01-11T01:11:43.895Z,82.30
2023-01-11T01:14:29.601Z,82.23
2023-01-11T01:16:58.616Z,81.95
2023-01-11T01:19:27.840Z,82.19
2023-01-11T01:21:55.994Z,82.16
2023-01-11T01:24:23.744Z,82.18
2023-01-11T01:26:51.140Z,82.23
2023-01-11T01:29:20.123Z,82.14
2023-01-11T01:31:47.739Z,82.16
2023-01-11T01:34:14.938Z,81.93
2023-01-11T01:36:42.033Z,81.95
2023-01-11T01:39:11.295Z,81.92
2023-01-11T01:41:38.402Z,81.94
2023-01-11T01:44:21.479Z,81.91
2023-01-11T01:46:50.331Z,82.03
2023-01-11T01:49:17.872Z,82.21
2023-01-11T01:51:48.917Z,82.14
2023-01-11T01:54:20.414Z,82.14
2023-01-11T01:56:52.212Z,82.05
2023-01-11T01:59:21.838Z,82.20
2023-01-11T02:01:52.265Z,82.08
2023-01-11T02:04:24.521Z,82.09
2023-01-11T02:06:56.530Z,81.86
2023-01-11T02:09:29.661Z,81.94
2023-01-11T02:11:58.620Z,81.80
2023-01-11T02:14:28.015Z,81.80
2023-01-11T02:16:56.812Z,81.76
2023-01-11T02:19:40.486Z,81.83
2023-01-11T02:22:41.909Z,81.95
2023-01-11T02:25:45.084Z,81.95
2023-01-11T02:28:18.053Z,81.81
2023-01-11T02:30:53.724Z,81.79
2023-01-11T02:33:30.561Z,81.39
2023-01-11T02:36:08.600Z,81.19
2023-01-11T02:38:45.172Z,81.39
2023-01-11T02:41:26.534Z,81.39
2023-01-11T02:44:20.931Z,81.60
2023-01-11T02:46:53.492Z,81.36
2023-01-11T02:49:26.064Z,81.52
2023-01-11T02:51:55.836Z,81.60
2023-01-11T02:54:24.490Z,81.56
2023-01-11T02:56:55.191Z,81.55
2023-01-11T02:59:28.160Z,81.53
2023-01-11T03:04:40.248Z,81.49
2023-01-11T03:07:23.023Z,81.70
2023-01-11T03:09:59.213Z,81.67
2023-01-11T03:12:55.053Z,81.47
2023-01-11T03:15:45.120Z,81.54
2023-01-11T03:18:28.362Z,81.79
2023-01-11T03:21:03.736Z,81.95
2023-01-11T03:23:39.232Z,81.84
2023-01-11T03:26:16.270Z,81.97
2023-01-11T03:28:52.571Z,81.84
2023-01-11T03:31:27.681Z,81.80
2023-01-11T03:34:00.630Z,82.01
2023-01-11T03:36:33.656Z,81.99
2023-01-11T03:39:08.261Z,82.02
2023-01-11T03:41:39.031Z,81.86
2023-01-11T03:44:08.018Z,82.00
2023-01-11T03:46:41.012Z,81.91
2023-01-11T03:49:13.286Z,81.93
2023-01-11T03:51:43.491Z,81.61
2023-01-11T03:54:14.229Z,81.83
2023-01-11T03:56:46.289Z,81.77
2023-01-11T03:59:14.172Z,81.84
2023-01-11T04:01:43.947Z,81.70
2023-01-11T04:04:11.039Z,81.65
2023-01-11T04:06:39.402Z,81.53
2023-01-11T04:09:06.843Z,81.51
2023-01-11T04:11:34.015Z,81.65
2023-01-11T04:14:01.529Z,81.43
2023-01-11T04:16:28.660Z,81.25
2023-01-11T04:18:57.103Z,81.15
2023-01-11T04:21:24.214Z,81.20
2023-01-11T04:23:51.376Z,80.99
2023-01-11T04:26:18.546Z,80.98
2023-01-11T04:28:46.672Z,80.63
2023-01-11T04:31:13.813Z,80.64
2023-01-11T04:33:40.981Z,80.67
2023-01-11T04:36:11.381Z,80.97
2023-01-11T04:38:39.891Z,80.79
2023-01-11T04:41:25.587Z,80.68
2023-01-11T04:43:54.537Z,80.89
2023-01-11T04:46:21.628Z,80.95
2023-01-11T04:48:48.893Z,80.86
2023-01-11T04:51:17.390Z,80.90
2023-01-11T04:53:47.204Z,80.74
2023-01-11T04:56:14.514Z,80.84
2023-01-11T04:58:45.995Z,80.95
2023-01-11T05:01:16.413Z,80.81
2023-01-11T05:03:43.682Z,80.73
2023-01-11T05:06:11.256Z,80.44
2023-01-11T05:08:40.389Z,80.53
2023-01-11T05:11:08.492Z,80.28
2023-01-11T05:13:44.365Z,80.50
2023-01-11T05:16:13.200Z,80.49
2023-01-11T05:18:41.466Z,80.41
2023-01-11T05:21:09.691Z,80.26
2023-01-11T05:23:37.277Z,80.61
2023-01-11T05:26:08.160Z,80.71
2023-01-11T05:28:38.313Z,80.68
2023-01-11T05:31:05.757Z,80.67
2023-01-11T05:33:32.891Z,80.76
2023-01-11T05:36:01.264Z,80.68
2023-01-11T05:38:29.199Z,80.58
2023-01-11T05:40:57.600Z,80.71
2023-01-11T05:43:27.190Z,80.69
2023-01-11T05:45:55.035Z,80.85
2023-01-11T05:48:22.249Z,80.82
2023-01-11T05:50:53.268Z,80.87
2023-01-11T05:53:21.608Z,80.72
2023-01-11T05:55:55.275Z,80.60
2023-01-11T05:58:23.432Z,80.48
2023-01-11T06:00:53.743Z,80.78
2023-01-11T06:03:21.624Z,80.88
2023-01-11T06:05:48.825Z,80.78
2023-01-11T06:08:16.194Z,80.71
2023-01-11T06:10:43.916Z,80.79
2023-01-11T06:13:29.425Z,80.84
2023-01-11T06:16:01.396Z,80.91
2023-01-11T06:18:30.242Z,80.91
2023-01-11T06:20:58.131Z,80.94
2023-01-11T06:23:27.024Z,80.87
2023-01-11T06:25:54.429Z,80.81
2023-01-11T06:28:22.025Z,80.80
2023-01-11T06:30:52.806Z,80.89
2023-01-11T06:33:22.959Z,80.99
2023-01-11T06:35:50.791Z,80.88
2023-01-11T06:38:19.943Z,80.82
2023-01-11T06:40:52.743Z,80.83
2023-01-11T06:43:21.019Z,80.81
2023-01-11T06:45:48.417Z,80.78
2023-01-11T06:48:16.002Z,80.84
2023-01-11T06:50:47.728Z,80.67
2023-01-11T06:53:15.378Z,80.79
2023-01-11T06:55:42.542Z,80.79
2023-01-11T06:58:09.737Z,80.79
2023-01-11T07:00:37.048Z,80.64
2023-01-11T07:03:04.966Z,80.68
2023-01-11T07:05:33.528Z,80.84
2023-01-11T07:08:02.718Z,80.54
2023-01-11T07:10:30.177Z,80.71
2023-01-11T07:12:57.817Z,80.71
2023-01-11T07:15:24.975Z,80.72
2023-01-11T07:17:54.528Z,80.77
2023-01-11T07:20:22.706Z,80.69
2023-01-11T07:22:50.038Z,80.60
2023-01-11T07:25:18.855Z,80.71
2023-01-11T07:27:46.059Z,80.89
2023-01-11T07:30:13.988Z,80.67
2023-01-11T07:32:41.203Z,80.76
2023-01-11T07:35:09.151Z,80.88
2023-01-11T07:37:37.707Z,80.74
2023-01-11T07:40:06.091Z,80.60
2023-01-11T07:42:53.105Z,80.64
2023-01-11T07:45:20.466Z,80.66
2023-01-11T07:47:50.078Z,80.63
2023-01-11T07:50:17.679Z,80.51
2023-01-11T07:52:47.409Z,80.61
2023-01-11T07:55:15.755Z,80.63
2023-01-11T07:57:44.250Z,80.75
2023-01-11T08:00:12.684Z,80.88
2023-01-11T08:02:39.890Z,81.11
2023-01-11T08:05:07.933Z,81.21
2023-01-11T08:07:35.129Z,81.24
2023-01-11T08:10:03.432Z,81.18
2023-01-11T08:12:51.495Z,81.65
2023-01-11T08:15:21.803Z,81.42
2023-01-11T08:17:50.584Z,81.29
2023-01-11T08:20:17.906Z,81.33
2023-01-11T13:36:23.166Z,33.17
2023-01-11T13:42:37.206Z,37.51
2023-01-11T13:45:15.606Z,44.20
2023-01-11T13:47:47.176Z,43.21
2023-01-11T13:50:20.813Z,42.59
2023-01-11T13:52:58.525Z,47.98
2023-01-11T13:55:30.680Z,46.50
2023-01-11T13:58:03.933Z,47.66
2023-01-11T14:00:38.256Z,46.94
2023-01-11T14:03:15.979Z,44.03
2023-01-11T14:05:53.030Z,51.07
2023-01-11T14:08:46.087Z,48.43
2023-01-11T14:11:21.303Z,49.02
2023-01-11T14:14:18.036Z,54.37
2023-01-11T14:16:59.936Z,46.08
2023-01-11T14:19:34.311Z,43.61
2023-01-11T14:22:13.099Z,55.99
2023-01-11T14:24:46.797Z,50.93
2023-01-11T14:27:47.792Z,50.14
2023-01-11T14:30:34.851Z,57.40
2023-01-11T14:33:22.971Z,45.55
2023-01-11T14:36:07.990Z,58.13
2023-01-11T14:39:06.403Z,51.95
2023-01-11T14:42:02.205Z,52.70
2023-01-11T14:45:02.312Z,52.65
2023-01-11T14:48:04.228Z,49.67
2023-01-11T14:50:42.088Z,46.36
2023-01-11T14:53:18.027Z,58.81
2023-01-11T14:55:46.490Z,54.16
2023-01-11T14:58:21.487Z,54.60
2023-01-11T15:02:06.213Z,48.75
2023-01-11T15:08:45.312Z,48.81
2023-01-11T15:11:38.717Z,48.49
2023-01-11T15:14:25.262Z,49.83
2023-01-11T15:17:24.167Z,51.64
2023-01-11T15:19:53.348Z,57.50
2023-01-11T15:22:30.812Z,52.22
2023-01-11T15:25:02.161Z,46.78
2023-01-11T15:27:34.275Z,48.85
2023-01-11T15:30:01.983Z,44.93
2023-01-11T15:32:31.637Z,49.88
2023-01-11T15:35:31.944Z,45.30
2023-01-11T15:38:09.086Z,45.21
2023-01-11T15:40:41.074Z,45.27
2023-01-11T15:43:48.098Z,48.67
2023-01-11T15:46:45.961Z,50.94
2023-01-11T15:49:52.102Z,49.94
2023-01-11T15:52:51.622Z,52.00
2023-01-11T15:55:49.480Z,53.87
2023-01-11T15:58:51.889Z,48.80
2023-01-11T16:01:24.081Z,50.44
2023-01-11T16:04:01.799Z,52.01
2023-01-11T16:06:40.757Z,53.37
2023-01-11T16:09:24.417Z,50.27
2023-01-11T16:12:07.465Z,48.93
2023-01-11T16:14:50.800Z,53.39
2023-01-11T16:17:21.636Z,58.07
2023-01-11T16:19:55.396Z,56.20
2023-01-11T16:22:25.985Z,54.18
2023-01-11T16:24:56.951Z,54.99
2023-01-11T16:27:28.003Z,55.64
2023-01-11T16:29:56.490Z,56.01
2023-01-11T16:32:27.220Z,56.29
2023-01-11T16:34:55.806Z,50.06
2023-01-11T16:37:31.052Z,56.76
2023-01-11T16:40:06.801Z,47.92
2023-01-11T16:42:41.172Z,51.85
2023-01-11T16:45:13.821Z,50.76
2023-01-11T16:47:41.212Z,53.57
2023-01-11T16:50:20.842Z,51.71
2023-01-11T16:52:52.109Z,48.17
2023-01-11T16:55:23.967Z,48.33
2023-01-11T16:57:58.767Z,47.47
2023-01-11T17:00:32.655Z,48.84
2023-01-11T17:03:02.367Z,60.52
2023-01-11T17:05:29.617Z,51.15
2023-01-11T17:07:56.978Z,48.42
2023-01-11T17:10:28.044Z,53.73
2023-01-11T17:13:43.616Z,50.71
2023-01-11T17:16:15.027Z,54.47
2023-01-11T17:18:43.377Z,51.88
2023-01-11T17:21:18.455Z,51.27
2023-01-11T17:23:47.407Z,53.76
2023-01-11T17:26:18.556Z,59.37
2023-01-11T17:28:50.583Z,64.77
2023-01-11T17:31:22.558Z,62.22
2023-01-11T17:33:59.653Z,59.95
2023-01-11T17:36:27.455Z,46.65
2023-01-11T17:38:55.820Z,53.34
2023-01-11T17:41:41.773Z,53.52
2023-01-11T17:44:35.294Z,57.61
2023-01-11T17:47:05.109Z,46.48
2023-01-11T17:49:34.309Z,45.17
2023-01-11T17:52:10.334Z,45.49
2023-01-11T17:54:37.618Z,45.25
2023-01-11T17:57:05.703Z,48.28
2023-01-11T17:59:35.631Z,47.93
2023-01-11T18:02:08.733Z,48.05
2023-01-11T18:04:36.101Z,46.85
2023-01-11T18:07:09.072Z,46.69
2023-01-11T18:09:42.688Z,49.17
2023-01-11T18:12:17.493Z,48.48
2023-01-11T18:14:52.097Z,48.11
2023-01-11T18:17:32.585Z,48.08
2023-01-11T18:20:00.847Z,48.37
2023-01-11T18:22:30.017Z,46.72
2023-01-11T18:24:58.282Z,50.91
2023-01-11T18:27:31.685Z,49.14
2023-01-11T18:30:02.989Z,49.16
2023-01-11T18:32:35.828Z,47.75
2023-01-11T18:35:03.762Z,49.25
2023-01-11T18:37:31.169Z,48.45
2023-01-11T18:39:59.386Z,51.28
2023-01-11T18:42:30.129Z,50.81
2023-01-11T18:44:57.555Z,52.21
2023-01-11T18:47:29.686Z,49.15
2023-01-11T18:49:57.640Z,50.30
2023-01-11T18:52:27.753Z,52.04
2023-01-11T18:54:56.304Z,51.18
2023-01-11T18:57:24.453Z,53.51
2023-01-11T18:59:52.694Z,51.02
2023-01-11T19:02:25.602Z,49.25
2023-01-11T19:04:56.222Z,48.07
2023-01-11T19:07:24.972Z,48.35
2023-01-11T19:09:55.067Z,47.68
2023-01-11T19:12:23.412Z,51.08
2023-01-11T19:14:51.098Z,49.01
2023-01-11T19:17:18.487Z,49.00
2023-01-11T19:19:47.741Z,48.80
2023-01-11T19:22:16.535Z,52.89
2023-01-11T19:24:44.173Z,51.95
2023-01-11T19:27:13.679Z,53.13
2023-01-11T19:29:42.648Z,52.00
2023-01-11T19:32:10.006Z,51.90
2023-01-11T19:34:39.685Z,49.48
2023-01-11T19:37:07.239Z,48.90
2023-01-11T19:39:36.455Z,49.58
2023-01-11T19:42:04.212Z,52.43
2023-01-11T19:44:32.896Z,49.00
2023-01-11T19:47:10.793Z,52.26
2023-01-11T19:49:38.896Z,51.09
2023-01-11T19:52:13.442Z,49.30
2023-01-11T19:54:43.443Z,55.39
2023-01-11T19:57:11.580Z,50.96
2023-01-11T19:59:38.958Z,52.51
2023-01-11T20:02:07.029Z,54.01
2023-01-11T20:04:34.792Z,52.21
2023-01-11T20:07:02.158Z,53.18
2023-01-11T20:09:29.667Z,51.71
2023-01-11T20:11:58.978Z,52.88
2023-01-11T20:14:27.012Z,53.57
2023-01-11T20:16:54.622Z,52.06
2023-01-11T20:19:22.248Z,49.45
2023-01-11T20:21:49.502Z,49.42
2023-01-11T20:24:16.970Z,50.30
2023-01-11T20:26:46.591Z,51.21
2023-01-11T20:29:15.475Z,51.46
2023-01-11T20:31:42.905Z,51.60
2023-01-11T20:34:11.841Z,49.70
2023-01-11T20:36:39.511Z,51.61
2023-01-11T20:39:07.333Z,52.03
2023-01-11T20:41:47.449Z,50.53
2023-01-11T20:44:20.646Z,51.77
2023-01-11T20:46:48.644Z,50.61
2023-01-11T20:49:17.086Z,52.13
2023-01-11T20:51:45.230Z,52.44
2023-01-11T20:54:13.302Z,52.28
2023-01-11T20:56:41.766Z,53.50
2023-01-11T21:01:38.745Z,51.77
2023-01-11T21:04:08.342Z,51.13
2023-01-11T21:06:37.706Z,53.59
2023-01-11T21:09:07.108Z,53.84
2023-01-11T21:11:35.371Z,50.94
2023-01-11T21:14:04.286Z,51.09
2023-01-11T21:16:31.927Z,53.25
2023-01-11T21:19:02.677Z,52.54
2023-01-11T21:21:32.103Z,50.65
2023-01-11T21:24:00.975Z,51.60
2023-01-11T21:26:29.098Z,51.73
2023-01-11T21:29:00.986Z,50.91
2023-01-11T21:31:31.316Z,53.35
2023-01-11T21:34:00.905Z,51.88
2023-01-11T21:36:30.560Z,49.81
2023-01-11T21:38:58.982Z,49.79
2023-01-11T21:41:46.721Z,53.23
2023-01-11T21:44:14.882Z,51.33
2023-01-11T21:46:42.902Z,50.84
2023-01-11T21:49:12.830Z,49.81
2023-01-11T21:51:40.954Z,51.44
2023-01-11T21:54:10.084Z,51.90
2023-01-11T21:56:37.626Z,51.55
2023-01-11T21:59:05.146Z,51.49
2023-01-11T22:01:32.499Z,50.81
2023-01-11T22:03:59.851Z,51.02
2023-01-11T22:06:28.472Z,52.15
2023-01-11T22:08:55.812Z,51.19
2023-01-11T22:11:23.181Z,50.44
2023-01-11T22:13:50.381Z,50.93
2023-01-11T22:16:18.481Z,52.90
2023-01-11T22:18:46.128Z,54.21
2023-01-11T22:21:14.932Z,53.66
2023-01-11T22:23:44.412Z,53.54
2023-01-11T22:26:13.727Z,52.29
2023-01-11T22:29:00.166Z,52.20
2023-01-11T22:31:29.457Z,52.93
2023-01-11T22:33:57.574Z,51.96
2023-01-11T22:36:26.077Z,51.60
2023-01-11T22:38:55.587Z,52.63
2023-01-11T22:41:24.123Z,53.60
2023-01-11T22:43:51.978Z,52.54
2023-01-11T22:46:21.200Z,53.31
2023-01-11T22:48:48.967Z,52.52
2023-01-11T22:51:17.539Z,53.78
2023-01-11T22:53:46.361Z,52.95
2023-01-11T22:56:20.281Z,53.64
2023-01-11T22:58:48.502Z,55.10
2023-01-11T23:01:18.580Z,52.87
2023-01-11T23:03:45.995Z,55.34
2023-01-11T23:06:16.319Z,54.81
2023-01-11T23:08:43.972Z,54.35
2023-01-11T23:11:15.776Z,54.75
2023-01-11T23:13:54.989Z,54.26
2023-01-11T23:16:22.881Z,54.64
2023-01-11T23:18:50.771Z,56.53
2023-01-11T23:21:18.206Z,53.88
2023-01-11T23:23:46.118Z,54.20
2023-01-11T23:26:17.887Z,54.53
2023-01-11T23:28:47.133Z,54.14
2023-01-11T23:31:17.174Z,54.60
2023-01-11T23:33:45.226Z,54.28
2023-01-11T23:36:13.365Z,53.85
2023-01-11T23:38:40.921Z,54.36
2023-01-11T23:41:27.939Z,54.83
2023-01-11T23:43:57.121Z,53.06
2023-01-11T23:46:43.448Z,54.07
2023-01-11T23:49:12.167Z,53.92
2023-01-11T23:51:39.433Z,53.97
2023-01-11T23:54:07.565Z,53.63
2023-01-11T23:56:35.871Z,53.43
2023-01-11T23:59:05.245Z,55.08
